sensor_id;sensor_type;location;lat;lon;timestamp;pressure;altitude;pressure_sealevel;temperature;humidity
141;BME280;65;48.778;9.160;2022-08-20T00:00:45;98430.00;;;21.16;65.80
141;BME280;65;48.778;9.160;2022-08-20T00:03:20;98434.09;;;21.03;66.48
141;BME280;65;48.778;9.160;2022-08-20T00:05:53;98437.03;;;20.92;67.13
141;BME280;65;48.778;9.160;2022-08-20T00:08:20;98435.03;;;20.94;66.84
141;BME280;65;48.778;9.160;2022-08-20T00:10:48;98437.34;;;20.89;67.45
141;BME280;65;48.778;9.160;2022-08-20T00:13:20;98431.97;;;20.89;67.25
141;BME280;65;48.778;9.160;2022-08-20T00:15:45;98440.34;;;20.86;67.75
141;BME280;65;48.778;9.160;2022-08-20T00:18:11;98441.09;;;20.78;68.02
141;BME280;65;48.778;9.160;2022-08-20T00:20:41;98437.72;;;20.76;67.88
141;BME280;65;48.778;9.160;2022-08-20T00:23:07;98432.66;;;20.73;68.10
141;BME280;65;48.778;9.160;2022-08-20T00:25:33;98432.34;;;20.76;68.40
141;BME280;65;48.778;9.160;2022-08-20T00:28:05;98439.25;;;20.78;68.12
141;BME280;65;48.778;9.160;2022-08-20T00:30:34;98438.41;;;20.78;68.34
141;BME280;65;48.778;9.160;2022-08-20T00:33:03;98436.66;;;20.69;68.44
141;BME280;65;48.778;9.160;2022-08-20T00:35:31;98442.03;;;20.69;68.80
141;BME280;65;48.778;9.160;2022-08-20T00:37:57;98446.41;;;20.70;68.30
141;BME280;65;48.778;9.160;2022-08-20T00:40:26;98443.41;;;20.73;68.47
141;BME280;65;48.778;9.160;2022-08-20T00:42:56;98447.31;;;20.78;68.44
141;BME280;65;48.778;9.160;2022-08-20T00:45:23;98441.88;;;20.88;67.77
141;BME280;65;48.778;9.160;2022-08-20T00:47:49;98439.94;;;20.98;67.51
141;BME280;65;48.778;9.160;2022-08-20T00:50:31;98431.88;;;20.98;67.35
141;BME280;65;48.778;9.160;2022-08-20T00:52:58;98444.16;;;21.01;67.38
141;BME280;65;48.778;9.160;2022-08-20T00:55:25;98436.09;;;21.01;67.17
141;BME280;65;48.778;9.160;2022-08-20T00:57:55;98439.78;;;21.00;67.27
141;BME280;65;48.778;9.160;2022-08-20T01:00:32;98434.09;;;21.03;67.23
141;BME280;65;48.778;9.160;2022-08-20T01:02:59;98438.53;;;21.12;66.74
141;BME280;65;48.778;9.160;2022-08-20T01:05:26;98443.06;;;21.11;66.79
141;BME280;65;48.778;9.160;2022-08-20T01:07:53;98442.75;;;21.14;66.77
141;BME280;65;48.778;9.160;2022-08-20T01:10:24;98440.22;;;21.13;66.70
141;BME280;65;48.778;9.160;2022-08-20T01:12:50;98447.44;;;21.12;66.72
141;BME280;65;48.778;9.160;2022-08-20T01:15:19;98449.97;;;21.14;66.93
141;BME280;65;48.778;9.160;2022-08-20T01:17:52;98451.81;;;21.13;67.16
141;BME280;65;48.778;9.160;2022-08-20T01:20:22;98455.19;;;21.15;66.67
141;BME280;65;48.778;9.160;2022-08-20T01:22:58;98459.88;;;21.13;66.88
141;BME280;65;48.778;9.160;2022-08-20T01:25:53;98461.72;;;21.13;67.05
141;BME280;65;48.778;9.160;2022-08-20T01:28:25;98466.03;;;21.06;67.25
141;BME280;65;48.778;9.160;2022-08-20T01:30:52;98459.81;;;21.05;67.12
141;BME280;65;48.778;9.160;2022-08-20T01:33:18;98468.88;;;21.04;67.11
141;BME280;65;48.778;9.160;2022-08-20T01:35:44;98472.25;;;21.06;66.98
141;BME280;65;48.778;9.160;2022-08-20T01:38:11;98465.19;;;21.05;67.08
141;BME280;65;48.778;9.160;2022-08-20T01:43:39;98465.25;;;21.13;67.17
141;BME280;65;48.778;9.160;2022-08-20T01:46:07;98467.09;;;21.13;66.88
141;BME280;65;48.778;9.160;2022-08-20T01:48:35;98464.41;;;21.13;66.78
141;BME280;65;48.778;9.160;2022-08-20T01:51:15;98464.25;;;21.14;66.84
141;BME280;65;48.778;9.160;2022-08-20T01:53:47;98470.78;;;21.12;67.05
141;BME280;65;48.778;9.160;2022-08-20T01:56:16;98475.63;;;21.08;67.48
141;BME280;65;48.778;9.160;2022-08-20T01:58:44;98477.31;;;21.09;67.11
141;BME280;65;48.778;9.160;2022-08-20T02:03:58;98479.69;;;21.12;67.00
141;BME280;65;48.778;9.160;2022-08-20T02:06:25;98491.59;;;21.10;67.31
141;BME280;65;48.778;9.160;2022-08-20T02:09:10;98491.75;;;21.08;67.42
141;BME280;65;48.778;9.160;2022-08-20T02:11:37;98484.16;;;21.04;67.39
141;BME280;65;48.778;9.160;2022-08-20T02:14:06;98486.69;;;21.05;67.28
141;BME280;65;48.778;9.160;2022-08-20T02:16:36;98486.38;;;21.08;67.15
141;BME280;65;48.778;9.160;2022-08-20T02:19:07;98485.00;;;21.04;67.48
141;BME280;65;48.778;9.160;2022-08-20T02:21:35;98489.53;;;21.04;67.29
141;BME280;65;48.778;9.160;2022-08-20T02:24:02;98488.16;;;21.00;67.45
141;BME280;65;48.778;9.160;2022-08-20T02:26:29;98485.63;;;20.98;67.94
141;BME280;65;48.778;9.160;2022-08-20T02:28:55;98492.31;;;20.94;68.07
141;BME280;65;48.778;9.160;2022-08-20T02:31:22;98493.31;;;20.93;68.28
141;BME280;65;48.778;9.160;2022-08-20T02:33:48;98496.31;;;20.90;68.20
141;BME280;65;48.778;9.160;2022-08-20T02:36:14;98497.31;;;20.89;68.00
141;BME280;65;48.778;9.160;2022-08-20T02:38:42;98497.63;;;20.86;68.55
141;BME280;65;48.778;9.160;2022-08-20T02:41:08;98494.63;;;20.89;68.22
141;BME280;65;48.778;9.160;2022-08-20T02:43:34;98494.94;;;20.86;68.52
141;BME280;65;48.778;9.160;2022-08-20T02:46:01;98497.09;;;20.82;68.53
141;BME280;65;48.778;9.160;2022-08-20T02:48:26;98489.19;;;20.81;68.83
141;BME280;65;48.778;9.160;2022-08-20T02:50:55;98498.94;;;20.82;68.90
141;BME280;65;48.778;9.160;2022-08-20T02:53:22;98496.09;;;20.83;69.05
141;BME280;65;48.778;9.160;2022-08-20T02:55:49;98491.16;;;20.79;69.01
141;BME280;65;48.778;9.160;2022-08-20T02:58:19;98499.78;;;20.82;68.85
141;BME280;65;48.778;9.160;2022-08-20T03:00:45;98489.47;;;20.78;68.83
141;BME280;65;48.778;9.160;2022-08-20T03:03:11;98483.81;;;20.81;69.10
141;BME280;65;48.778;9.160;2022-08-20T03:05:41;98487.47;;;20.80;68.90
141;BME280;65;48.778;9.160;2022-08-20T03:08:08;98475.81;;;20.71;69.63
141;BME280;65;48.778;9.160;2022-08-20T03:10:35;98478.25;;;20.65;69.53
141;BME280;65;48.778;9.160;2022-08-20T03:13:03;98480.56;;;20.60;69.77
141;BME280;65;48.778;9.160;2022-08-20T03:15:31;98476.88;;;20.61;70.12
141;BME280;65;48.778;9.160;2022-08-20T03:17:57;98476.50;;;20.56;70.68
141;BME280;65;48.778;9.160;2022-08-20T03:20:24;98477.50;;;20.55;70.35
141;BME280;65;48.778;9.160;2022-08-20T03:22:50;98476.41;;;20.47;70.94
141;BME280;65;48.778;9.160;2022-08-20T03:25:16;98475.03;;;20.43;70.97
141;BME280;65;48.778;9.160;2022-08-20T03:27:42;98477.88;;;20.42;70.97
141;BME280;65;48.778;9.160;2022-08-20T03:30:24;98481.59;;;20.31;71.49
141;BME280;65;48.778;9.160;2022-08-20T03:32:50;98484.28;;;20.31;71.16
141;BME280;65;48.778;9.160;2022-08-20T03:35:19;98479.19;;;20.28;71.68
141;BME280;65;48.778;9.160;2022-08-20T03:37:45;98474.97;;;20.26;71.77
141;BME280;65;48.778;9.160;2022-08-20T03:40:22;98482.19;;;20.25;72.39
141;BME280;65;48.778;9.160;2022-08-20T03:42:52;98472.16;;;20.27;71.88
141;BME280;65;48.778;9.160;2022-08-20T03:45:19;98482.13;;;20.35;71.61
141;BME280;65;48.778;9.160;2022-08-20T03:47:45;98487.06;;;20.39;72.04
141;BME280;65;48.778;9.160;2022-08-20T03:50:11;98487.69;;;20.51;71.13
141;BME280;65;48.778;9.160;2022-08-20T03:52:40;98491.59;;;20.57;70.85
141;BME280;65;48.778;9.160;2022-08-20T03:55:07;98491.00;;;20.63;70.48
141;BME280;65;48.778;9.160;2022-08-20T03:57:34;98488.22;;;20.72;70.40
141;BME280;65;48.778;9.160;2022-08-20T04:00:00;98492.75;;;20.72;70.18
141;BME280;65;48.778;9.160;2022-08-20T04:02:26;98494.00;;;20.77;70.21
141;BME280;65;48.778;9.160;2022-08-20T04:04:52;98496.69;;;20.77;70.08
141;BME280;65;48.778;9.160;2022-08-20T04:07:24;98492.91;;;20.70;70.50
141;BME280;65;48.778;9.160;2022-08-20T04:09:54;98489.91;;;20.73;70.27
141;BME280;65;48.778;9.160;2022-08-20T04:12:20;98497.97;;;20.73;70.47
141;BME280;65;48.778;9.160;2022-08-20T04:14:47;98492.91;;;20.70;70.93
141;BME280;65;48.778;9.160;2022-08-20T04:17:13;98490.84;;;20.64;71.53
141;BME280;65;48.778;9.160;2022-08-20T04:19:39;98491.53;;;20.66;71.05
141;BME280;65;48.778;9.160;2022-08-20T04:22:05;98490.69;;;20.66;71.66
141;BME280;65;48.778;9.160;2022-08-20T04:24:33;98496.38;;;20.63;71.08
141;BME280;65;48.778;9.160;2022-08-20T04:27:00;98497.81;;;20.57;71.51
141;BME280;65;48.778;9.160;2022-08-20T04:29:27;98500.50;;;20.57;71.46
141;BME280;65;48.778;9.160;2022-08-20T04:31:53;98512.72;;;20.51;71.58
141;BME280;65;48.778;9.160;2022-08-20T04:34:20;98517.53;;;20.48;72.79
141;BME280;65;48.778;9.160;2022-08-20T04:36:57;98513.00;;;20.48;74.04
141;BME280;65;48.778;9.160;2022-08-20T04:39:22;98512.09;;;20.30;74.80
141;BME280;65;48.778;9.160;2022-08-20T04:41:48;98509.41;;;20.03;77.67
141;BME280;65;48.778;9.160;2022-08-20T04:44:13;98511.38;;;19.73;81.25
141;BME280;65;48.778;9.160;2022-08-20T04:46:39;98518.16;;;19.58;82.52
141;BME280;65;48.778;9.160;2022-08-20T04:49:06;98518.88;;;19.50;84.28
141;BME280;65;48.778;9.160;2022-08-20T04:51:32;98528.63;;;19.42;84.26
141;BME280;65;48.778;9.160;2022-08-20T04:53:58;98525.09;;;19.41;83.21
141;BME280;65;48.778;9.160;2022-08-20T04:56:27;98525.09;;;19.41;83.44
141;BME280;65;48.778;9.160;2022-08-20T04:58:54;98523.97;;;19.44;82.76
141;BME280;65;48.778;9.160;2022-08-20T05:01:21;98525.06;;;19.51;82.61
141;BME280;65;48.778;9.160;2022-08-20T05:03:48;98527.91;;;19.59;81.96
141;BME280;65;48.778;9.160;2022-08-20T05:06:14;98524.09;;;19.71;80.64
141;BME280;65;48.778;9.160;2022-08-20T05:08:41;98530.25;;;19.81;78.61
141;BME280;65;48.778;9.160;2022-08-20T05:11:07;98531.22;;;19.90;79.01
141;BME280;65;48.778;9.160;2022-08-20T05:13:36;98535.84;;;19.98;78.19
141;BME280;65;48.778;9.160;2022-08-20T05:16:08;98538.38;;;19.99;77.62
141;BME280;65;48.778;9.160;2022-08-20T05:18:33;98538.22;;;20.01;77.66
141;BME280;65;48.778;9.160;2022-08-20T05:21:00;98532.31;;;19.97;77.86
141;BME280;65;48.778;9.160;2022-08-20T05:23:36;98540.50;;;19.96;78.23
141;BME280;65;48.778;9.160;2022-08-20T05:26:05;98544.78;;;19.88;78.11
141;BME280;65;48.778;9.160;2022-08-20T05:28:34;98552.13;;;19.86;78.26
141;BME280;65;48.778;9.160;2022-08-20T05:31:00;98547.31;;;19.90;77.61
141;BME280;65;48.778;9.160;2022-08-20T05:33:26;98552.09;;;19.96;77.42
141;BME280;65;48.778;9.160;2022-08-20T05:35:53;98548.66;;;20.04;77.16
141;BME280;65;48.778;9.160;2022-08-20T05:38:20;98554.28;;;20.10;76.90
141;BME280;65;48.778;9.160;2022-08-20T05:40:47;98551.44;;;20.12;76.54
141;BME280;65;48.778;9.160;2022-08-20T05:43:12;98551.00;;;20.16;76.02
141;BME280;65;48.778;9.160;2022-08-20T05:45:39;98549.72;;;20.20;76.47
141;BME280;65;48.778;9.160;2022-08-20T05:48:07;98550.56;;;20.21;76.14
141;BME280;65;48.778;9.160;2022-08-20T05:50:35;98557.75;;;20.30;75.19
141;BME280;65;48.778;9.160;2022-08-20T05:53:07;98564.63;;;20.42;75.44
141;BME280;65;48.778;9.160;2022-08-20T05:55:33;98561.75;;;20.53;74.20
141;BME280;65;48.778;9.160;2022-08-20T05:58:03;98563.38;;;20.64;73.80
141;BME280;65;48.778;9.160;2022-08-20T06:00:29;98558.16;;;20.80;73.39
141;BME280;65;48.778;9.160;2022-08-20T06:02:55;98564.25;;;21.00;72.55
141;BME280;65;48.778;9.160;2022-08-20T06:05:40;98546.28;;;21.19;71.44
141;BME280;65;48.778;9.160;2022-08-20T06:08:08;98556.03;;;21.37;70.59
141;BME280;65;48.778;9.160;2022-08-20T06:10:34;98558.25;;;21.60;69.37
141;BME280;65;48.778;9.160;2022-08-20T06:13:00;98559.94;;;21.87;69.02
141;BME280;65;48.778;9.160;2022-08-20T06:15:27;98559.13;;;22.12;68.37
141;BME280;65;48.778;9.160;2022-08-20T06:17:52;98551.06;;;22.20;66.71
141;BME280;65;48.778;9.160;2022-08-20T06:20:18;98559.16;;;22.20;67.15
141;BME280;65;48.778;9.160;2022-08-20T06:22:43;98554.09;;;22.17;67.39
141;BME280;65;48.778;9.160;2022-08-20T06:25:09;98559.47;;;22.17;67.05
141;BME280;65;48.778;9.160;2022-08-20T06:27:46;98562.97;;;22.09;67.68
141;BME280;65;48.778;9.160;2022-08-20T06:30:13;98563.13;;;22.08;67.73
141;BME280;65;48.778;9.160;2022-08-20T06:32:39;98565.91;;;21.98;67.76
141;BME280;65;48.778;9.160;2022-08-20T06:35:07;98569.72;;;21.96;67.92
141;BME280;65;48.778;9.160;2022-08-20T06:37:34;98570.44;;;21.98;67.88
141;BME280;65;48.778;9.160;2022-08-20T06:40:14;98572.53;;;22.04;67.34
141;BME280;65;48.778;9.160;2022-08-20T06:42:40;98570.69;;;22.04;67.52
141;BME280;65;48.778;9.160;2022-08-20T06:45:12;98574.91;;;22.07;67.52
141;BME280;65;48.778;9.160;2022-08-20T06:47:44;98571.56;;;22.13;67.18
141;BME280;65;48.778;9.160;2022-08-20T06:50:12;98574.25;;;22.13;67.28
141;BME280;65;48.778;9.160;2022-08-20T06:52:39;98570.59;;;22.22;66.83
141;BME280;65;48.778;9.160;2022-08-20T06:55:07;98579.03;;;22.27;66.64
141;BME280;65;48.778;9.160;2022-08-20T06:57:34;98577.50;;;22.25;66.68
141;BME280;65;48.778;9.160;2022-08-20T07:00:00;98577.16;;;22.20;66.91
141;BME280;65;48.778;9.160;2022-08-20T07:02:25;98566.88;;;22.15;66.77
141;BME280;65;48.778;9.160;2022-08-20T07:04:51;98569.53;;;22.07;67.12
141;BME280;65;48.778;9.160;2022-08-20T07:07:16;98568.84;;;22.05;66.75
141;BME280;65;48.778;9.160;2022-08-20T07:09:42;98568.59;;;21.98;67.33
141;BME280;65;48.778;9.160;2022-08-20T07:12:08;98572.28;;;21.97;67.77
141;BME280;65;48.778;9.160;2022-08-20T07:14:35;98572.06;;;21.91;68.45
141;BME280;65;48.778;9.160;2022-08-20T07:17:04;98573.53;;;21.85;68.77
141;BME280;65;48.778;9.160;2022-08-20T07:19:30;98574.44;;;21.94;68.47
141;BME280;65;48.778;9.160;2022-08-20T07:21:55;98574.38;;;22.03;67.62
141;BME280;65;48.778;9.160;2022-08-20T07:24:21;98576.66;;;22.24;66.60
141;BME280;65;48.778;9.160;2022-08-20T07:26:51;98569.16;;;22.36;66.18
141;BME280;65;48.778;9.160;2022-08-20T07:29:17;98574.75;;;22.51;65.47
141;BME280;65;48.778;9.160;2022-08-20T07:31:43;98574.84;;;22.67;65.55
141;BME280;65;48.778;9.160;2022-08-20T07:34:27;98590.09;;;23.00;64.32
141;BME280;65;48.778;9.160;2022-08-20T07:36:58;98577.84;;;23.22;63.72
141;BME280;65;48.778;9.160;2022-08-20T07:39:24;98584.44;;;23.36;62.39
141;BME280;65;48.778;9.160;2022-08-20T07:41:49;98593.34;;;23.53;62.22
141;BME280;65;48.778;9.160;2022-08-20T07:44:27;98596.25;;;23.59;61.45
141;BME280;65;48.778;9.160;2022-08-20T07:46:53;98592.19;;;23.96;61.33
141;BME280;65;48.778;9.160;2022-08-20T07:49:22;98599.38;;;24.36;58.49
141;BME280;65;48.778;9.160;2022-08-20T07:51:47;98601.22;;;24.44;58.93
141;BME280;65;48.778;9.160;2022-08-20T07:54:12;98595.25;;;24.56;58.01
141;BME280;65;48.778;9.160;2022-08-20T07:56:37;98596.63;;;24.83;56.92
141;BME280;65;48.778;9.160;2022-08-20T07:59:03;98598.34;;;24.45;58.69
141;BME280;65;48.778;9.160;2022-08-20T08:01:29;98599.78;;;25.03;56.62
141;BME280;65;48.778;9.160;2022-08-20T08:03:56;98603.66;;;25.54;53.83
141;BME280;65;48.778;9.160;2022-08-20T08:06:22;98595.81;;;24.75;58.15
141;BME280;65;48.778;9.160;2022-08-20T08:08:49;98604.88;;;24.98;55.92
141;BME280;65;48.778;9.160;2022-08-20T08:11:15;98598.22;;;24.70;56.75
141;BME280;65;48.778;9.160;2022-08-20T08:13:41;98596.28;;;24.47;57.55
141;BME280;65;48.778;9.160;2022-08-20T08:16:08;98592.31;;;24.66;57.68
141;BME280;65;48.778;9.160;2022-08-20T08:18:46;98597.75;;;24.97;56.32
141;BME280;65;48.778;9.160;2022-08-20T08:21:14;98595.22;;;24.96;55.96
141;BME280;65;48.778;9.160;2022-08-20T08:23:40;98584.47;;;24.87;56.32
141;BME280;65;48.778;9.160;2022-08-20T08:26:08;98584.13;;;24.82;56.31
141;BME280;65;48.778;9.160;2022-08-20T08:28:34;98587.16;;;25.18;55.10
141;BME280;65;48.778;9.160;2022-08-20T08:31:01;98591.19;;;25.68;54.31
141;BME280;65;48.778;9.160;2022-08-20T08:33:29;98580.81;;;26.09;53.10
141;BME280;65;48.778;9.160;2022-08-20T08:36:08;98578.13;;;26.39;51.62
141;BME280;65;48.778;9.160;2022-08-20T08:38:36;98580.19;;;26.52;51.17
141;BME280;65;48.778;9.160;2022-08-20T08:43:39;98568.88;;;26.04;51.83
141;BME280;65;48.778;9.160;2022-08-20T08:46:09;98579.88;;;25.19;55.06
141;BME280;65;48.778;9.160;2022-08-20T08:48:38;98583.50;;;25.11;54.72
141;BME280;65;48.778;9.160;2022-08-20T08:51:09;98582.09;;;24.84;55.32
141;BME280;65;48.778;9.160;2022-08-20T08:53:43;98580.13;;;25.09;54.50
141;BME280;65;48.778;9.160;2022-08-20T08:56:27;98583.38;;;25.28;54.30
141;BME280;65;48.778;9.160;2022-08-20T08:58:57;98585.53;;;25.55;53.56
141;BME280;65;48.778;9.160;2022-08-20T09:01:24;98586.63;;;25.69;53.52
141;BME280;65;48.778;9.160;2022-08-20T09:03:50;98584.81;;;25.61;53.48
141;BME280;65;48.778;9.160;2022-08-20T09:06:21;98586.47;;;25.85;52.86
141;BME280;65;48.778;9.160;2022-08-20T09:08:50;98579.38;;;25.84;52.78
141;BME280;65;48.778;9.160;2022-08-20T09:11:19;98580.75;;;25.80;52.39
141;BME280;65;48.778;9.160;2022-08-20T09:13:45;98572.31;;;26.12;51.10
141;BME280;65;48.778;9.160;2022-08-20T09:16:11;98582.00;;;25.92;52.13
141;BME280;65;48.778;9.160;2022-08-20T09:18:37;98573.97;;;25.99;51.57
141;BME280;65;48.778;9.160;2022-08-20T09:21:03;98575.63;;;25.70;52.54
141;BME280;65;48.778;9.160;2022-08-20T09:23:29;98576.47;;;25.48;53.62
141;BME280;65;48.778;9.160;2022-08-20T09:25:55;98580.56;;;25.44;53.53
141;BME280;65;48.778;9.160;2022-08-20T09:28:21;98583.94;;;25.46;53.29
141;BME280;65;48.778;9.160;2022-08-20T09:30:46;98577.69;;;25.83;52.16
141;BME280;65;48.778;9.160;2022-08-20T09:33:12;98579.66;;;25.51;53.28
141;BME280;65;48.778;9.160;2022-08-20T09:35:37;98577.75;;;26.12;51.23
141;BME280;65;48.778;9.160;2022-08-20T09:38:04;98576.72;;;26.43;50.25
141;BME280;65;48.778;9.160;2022-08-20T09:40:30;98577.19;;;26.61;49.52
141;BME280;65;48.778;9.160;2022-08-20T09:42:55;98583.16;;;26.71;49.55
141;BME280;65;48.778;9.160;2022-08-20T09:45:21;98581.59;;;26.62;49.04
141;BME280;65;48.778;9.160;2022-08-20T09:47:46;98581.88;;;27.82;46.10
141;BME280;65;48.778;9.160;2022-08-20T09:50:12;98575.06;;;29.16;43.64
141;BME280;65;48.778;9.160;2022-08-20T09:52:45;98565.84;;;32.45;35.95
141;BME280;65;48.778;9.160;2022-08-20T09:57:52;98566.72;;;33.95;33.01
141;BME280;65;48.778;9.160;2022-08-20T10:00:24;98570.47;;;33.71;32.83
141;BME280;65;48.778;9.160;2022-08-20T10:02:49;98573.16;;;35.57;30.62
141;BME280;65;48.778;9.160;2022-08-20T10:05:15;98569.31;;;37.02;27.53
141;BME280;65;48.778;9.160;2022-08-20T10:07:41;98574.38;;;36.66;28.51
141;BME280;65;48.778;9.160;2022-08-20T10:10:09;98574.63;;;36.09;28.50
141;BME280;65;48.778;9.160;2022-08-20T10:12:35;98577.63;;;32.82;33.37
141;BME280;65;48.778;9.160;2022-08-20T10:15:01;98570.66;;;30.74;37.77
141;BME280;65;48.778;9.160;2022-08-20T10:17:26;98580.94;;;29.07;41.83
141;BME280;65;48.778;9.160;2022-08-20T10:19:51;98579.84;;;28.53;44.02
141;BME280;65;48.778;9.160;2022-08-20T10:22:17;98582.16;;;28.56;44.14
141;BME280;65;48.778;9.160;2022-08-20T10:24:42;98587.56;;;27.66;47.29
141;BME280;65;48.778;9.160;2022-08-20T10:27:08;98580.16;;;28.09;45.76
141;BME280;65;48.778;9.160;2022-08-20T10:29:33;98580.88;;;27.90;46.38
141;BME280;65;48.778;9.160;2022-08-20T10:32:10;98568.53;;;28.22;44.63
141;BME280;65;48.778;9.160;2022-08-20T10:34:37;98574.97;;;28.42;44.72
141;BME280;65;48.778;9.160;2022-08-20T10:37:03;98575.78;;;30.95;39.00
141;BME280;65;48.778;9.160;2022-08-20T10:39:29;98574.78;;;31.91;36.87
141;BME280;65;48.778;9.160;2022-08-20T10:41:54;98568.75;;;31.82;36.76
141;BME280;65;48.778;9.160;2022-08-20T10:44:19;98560.84;;;33.09;34.47
141;BME280;65;48.778;9.160;2022-08-20T10:46:45;98562.06;;;33.13;34.73
141;BME280;65;48.778;9.160;2022-08-20T10:49:11;98572.91;;;33.91;33.50
141;BME280;65;48.778;9.160;2022-08-20T10:51:37;98566.97;;;32.92;35.07
141;BME280;65;48.778;9.160;2022-08-20T10:54:02;98569.03;;;31.67;37.52
141;BME280;65;48.778;9.160;2022-08-20T10:56:28;98570.34;;;29.98;40.80
141;BME280;65;48.778;9.160;2022-08-20T10:58:53;98570.84;;;28.94;43.89
141;BME280;65;48.778;9.160;2022-08-20T11:01:18;98576.09;;;26.92;48.62
141;BME280;65;48.778;9.160;2022-08-20T11:03:44;98563.34;;;26.56;49.18
141;BME280;65;48.778;9.160;2022-08-20T11:06:09;98582.22;;;26.05;50.08
141;BME280;65;48.778;9.160;2022-08-20T11:08:41;98574.66;;;26.15;49.89
141;BME280;65;48.778;9.160;2022-08-20T11:11:06;98584.81;;;25.99;50.02
141;BME280;65;48.778;9.160;2022-08-20T11:13:35;98578.22;;;26.60;47.82
141;BME280;65;48.778;9.160;2022-08-20T11:16:01;98589.47;;;26.93;46.55
141;BME280;65;48.778;9.160;2022-08-20T11:18:27;98586.66;;;27.80;44.41
141;BME280;65;48.778;9.160;2022-08-20T11:20:54;98591.84;;;28.31;43.08
141;BME280;65;48.778;9.160;2022-08-20T11:23:19;98595.34;;;28.59;42.43
141;BME280;65;48.778;9.160;2022-08-20T11:26:00;98584.69;;;27.53;45.01
141;BME280;65;48.778;9.160;2022-08-20T11:28:25;98587.09;;;27.41;45.23
141;BME280;65;48.778;9.160;2022-08-20T11:30:54;98586.38;;;26.96;46.46
141;BME280;65;48.778;9.160;2022-08-20T11:33:26;98586.53;;;26.44;48.17
141;BME280;65;48.778;9.160;2022-08-20T11:35:51;98593.72;;;25.70;49.21
141;BME280;65;48.778;9.160;2022-08-20T11:38:17;98581.91;;;26.00;49.09
141;BME280;65;48.778;9.160;2022-08-20T11:40:43;98584.38;;;26.25;48.03
141;BME280;65;48.778;9.160;2022-08-20T11:43:10;98585.53;;;25.93;48.58
141;BME280;65;48.778;9.160;2022-08-20T11:45:36;98582.09;;;25.99;48.72
141;BME280;65;48.778;9.160;2022-08-20T11:48:01;98596.28;;;26.01;49.38
141;BME280;65;48.778;9.160;2022-08-20T11:50:27;98597.81;;;25.66;49.92
141;BME280;65;48.778;9.160;2022-08-20T11:52:53;98595.50;;;25.32;52.15
141;BME280;65;48.778;9.160;2022-08-20T11:55:19;98595.03;;;24.97;52.80
141;BME280;65;48.778;9.160;2022-08-20T11:57:47;98596.75;;;24.59;54.30
141;BME280;65;48.778;9.160;2022-08-20T12:00:18;98597.44;;;24.53;54.56
141;BME280;65;48.778;9.160;2022-08-20T12:02:44;98601.34;;;24.50;54.76
141;BME280;65;48.778;9.160;2022-08-20T12:05:12;98603.25;;;24.42;55.30
141;BME280;65;48.778;9.160;2022-08-20T12:07:38;98603.56;;;24.47;54.64
141;BME280;65;48.778;9.160;2022-08-20T12:10:04;98603.09;;;24.74;54.16
141;BME280;65;48.778;9.160;2022-08-20T12:12:31;98598.88;;;25.11;53.27
141;BME280;65;48.778;9.160;2022-08-20T12:14:56;98593.84;;;25.53;51.26
141;BME280;65;48.778;9.160;2022-08-20T12:17:26;98607.09;;;25.71;50.31
141;BME280;65;48.778;9.160;2022-08-20T12:19:54;98600.34;;;25.67;51.01
141;BME280;65;48.778;9.160;2022-08-20T12:22:21;98606.91;;;25.73;50.37
141;BME280;65;48.778;9.160;2022-08-20T12:24:47;98597.38;;;25.54;51.10
141;BME280;65;48.778;9.160;2022-08-20T12:27:13;98594.09;;;25.67;51.25
141;BME280;65;48.778;9.160;2022-08-20T12:29:41;98596.44;;;25.70;51.55
141;BME280;65;48.778;9.160;2022-08-20T12:32:07;98596.53;;;26.43;49.60
141;BME280;65;48.778;9.160;2022-08-20T12:34:37;98586.47;;;26.37;50.37
141;BME280;65;48.778;9.160;2022-08-20T12:37:17;98577.00;;;26.63;50.08
141;BME280;65;48.778;9.160;2022-08-20T12:39:45;98571.41;;;26.64;49.42
141;BME280;65;48.778;9.160;2022-08-20T12:42:11;98570.34;;;26.80;49.19
141;BME280;65;48.778;9.160;2022-08-20T12:44:37;98571.06;;;27.25;47.85
141;BME280;65;48.778;9.160;2022-08-20T12:47:17;98569.16;;;27.04;47.46
141;BME280;65;48.778;9.160;2022-08-20T12:49:45;98560.03;;;27.26;47.11
141;BME280;65;48.778;9.160;2022-08-20T12:52:13;98560.09;;;26.16;50.29
141;BME280;65;48.778;9.160;2022-08-20T12:54:39;98552.06;;;26.38;49.78
141;BME280;65;48.778;9.160;2022-08-20T12:57:04;98556.34;;;26.03;50.79
141;BME280;65;48.778;9.160;2022-08-20T12:59:30;98562.47;;;25.97;50.17
141;BME280;65;48.778;9.160;2022-08-20T13:01:55;98573.03;;;25.31;52.41
141;BME280;65;48.778;9.160;2022-08-20T13:04:22;98569.59;;;24.83;53.98
141;BME280;65;48.778;9.160;2022-08-20T13:06:48;98564.41;;;24.74;54.10
141;BME280;65;48.778;9.160;2022-08-20T13:09:14;98569.28;;;24.78;53.61
141;BME280;65;48.778;9.160;2022-08-20T13:11:40;98579.69;;;24.98;52.57
141;BME280;65;48.778;9.160;2022-08-20T13:14:05;98568.56;;;25.38;50.64
141;BME280;65;48.778;9.160;2022-08-20T13:16:31;98586.56;;;25.92;49.28
141;BME280;65;48.778;9.160;2022-08-20T13:19:09;98566.63;;;26.66;46.96
141;BME280;65;48.778;9.160;2022-08-20T13:21:35;98574.25;;;27.28;46.50
141;BME280;65;48.778;9.160;2022-08-20T13:24:01;98562.31;;;27.08;47.15
141;BME280;65;48.778;9.160;2022-08-20T13:26:27;98567.53;;;27.24;45.41
141;BME280;65;48.778;9.160;2022-08-20T13:28:52;98576.22;;;26.84;47.92
141;BME280;65;48.778;9.160;2022-08-20T13:31:17;98576.53;;;26.44;52.08
141;BME280;65;48.778;9.160;2022-08-20T13:33:43;98569.25;;;26.45;52.08
141;BME280;65;48.778;9.160;2022-08-20T13:36:08;98571.47;;;26.12;53.01
141;BME280;65;48.778;9.160;2022-08-20T13:38:34;98572.72;;;26.39;52.43
141;BME280;65;48.778;9.160;2022-08-20T13:40:59;98583.38;;;25.88;52.74
141;BME280;65;48.778;9.160;2022-08-20T13:43:24;98589.28;;;25.92;53.24
141;BME280;65;48.778;9.160;2022-08-20T13:45:50;98595.09;;;25.43;54.52
141;BME280;65;48.778;9.160;2022-08-20T13:48:15;98597.47;;;25.69;54.56
141;BME280;65;48.778;9.160;2022-08-20T13:50:41;98590.06;;;27.25;50.00
141;BME280;65;48.778;9.160;2022-08-20T13:53:07;98586.69;;;28.84;45.49
141;BME280;65;48.778;9.160;2022-08-20T13:55:32;98587.34;;;28.45;46.10
141;BME280;65;48.778;9.160;2022-08-20T13:58:03;98589.56;;;27.79;47.57
141;BME280;65;48.778;9.160;2022-08-20T14:00:30;98585.25;;;27.05;49.65
141;BME280;65;48.778;9.160;2022-08-20T14:02:57;98578.34;;;26.88;50.25
141;BME280;65;48.778;9.160;2022-08-20T14:05:22;98576.81;;;26.20;51.54
141;BME280;65;48.778;9.160;2022-08-20T14:07:48;98582.59;;;26.02;51.97
141;BME280;65;48.778;9.160;2022-08-20T14:10:22;98566.81;;;26.50;51.15